Time;durP1;ratioP1;P1;durP2;ratioP2;P2;SDS_P1;SDS_P2;PMS_P1;PMS_P2;Temp;Humidity;BMP_temperature;BMP_pressure;BME280_temperature;BME280_humidity;BME280_pressure;Samples;Min_cycle;Max_cycle;Signal;HPM_P1;HPM_P2
2021/11/18 00:01:52;;;;;;;15.90;6.80;;;;;;;;;;5029354;28;20501;-74
2021/11/18 00:04:17;;;;;;;27.27;6.73;;;;;;;;;;5046018;28;20317;-73
2021/11/18 00:06:44;;;;;;;19.83;7.07;;;;;;;;;;5030720;28;20288;-72
2021/11/18 00:09:10;;;;;;;23.80;7.83;;;;;;;;;;5030505;28;20185;-73
2021/11/18 00:11:35;;;;;;;17.67;7.37;;;;;;;;;;5029605;28;20735;-73
2021/11/18 00:14:00;;;;;;;16.67;6.07;;;;;;;;;;5029554;28;20190;-74
2021/11/18 00:16:25;;;;;;;18.67;6.87;;;;;;;;;;5038042;28;20235;-73
2021/11/18 00:18:50;;;;;;;17.60;6.33;;;;;;;;;;5047341;28;20220;-72
2021/11/18 00:21:16;;;;;;;14.73;6.10;;;;;;;;;;5048271;28;20305;-72
2021/11/18 00:23:42;;;;;;;18.67;6.70;;;;;;;;;;5042802;28;20685;-73
2021/11/18 00:26:08;;;;;;;15.23;6.27;;;;;;;;;;5040487;28;20201;-73
2021/11/18 00:28:34;;;;;;;18.63;6.10;;;;;;;;;;5039607;28;20260;-72
2021/11/18 00:30:59;;;;;;;17.77;5.97;;;;;;;;;;5042791;28;20178;-73
2021/11/18 00:33:25;;;;;;;19.30;6.50;;;;;;;;;;5049688;28;20584;-71
2021/11/18 00:35:51;;;;;;;19.10;7.00;;;;;;;;;;5047945;28;20223;-72
2021/11/18 00:38:16;;;;;;;19.17;6.87;;;;;;;;;;5047504;28;20695;-72
2021/11/18 00:40:42;;;;;;;14.13;5.90;;;;;;;;;;5049815;28;20182;-72
2021/11/18 00:43:09;;;;;;;19.73;6.27;;;;;;;;;;5051582;28;20693;-73
2021/11/18 00:45:34;;;;;;;18.13;6.23;;;;;;;;;;5035007;28;20223;-72
2021/11/18 00:48:00;;;;;;;27.97;8.47;;;;;;;;;;5034305;28;20194;-75
2021/11/18 00:50:27;;;;;;;11.53;6.00;;;;;;;;;;5027516;28;20865;-72
2021/11/18 00:52:52;;;;;;;25.73;6.67;;;;;;;;;;5027580;28;20723;-73
2021/11/18 00:55:18;;;;;;;22.10;6.47;;;;;;;;;;5030846;28;20216;-72
2021/11/18 00:57:44;;;;;;;18.83;6.60;;;;;;;;;;5030361;28;20192;-75
2021/11/18 01:00:14;;;;;;;22.40;7.40;;;;;;;;;;5028270;28;20882;-72
2021/11/18 01:02:39;;;;;;;15.93;6.40;;;;;;;;;;5029148;28;20205;-74
2021/11/18 01:05:05;;;;;;;18.93;5.80;;;;;;;;;;5030423;28;20206;-72
2021/11/18 01:07:30;;;;;;;18.93;6.20;;;;;;;;;;5037283;28;20262;-74
2021/11/18 01:09:56;;;;;;;22.03;6.00;;;;;;;;;;5039156;28;20260;-74
2021/11/18 01:12:21;;;;;;;19.57;6.40;;;;;;;;;;5028686;28;20194;-72
2021/11/18 01:14:46;;;;;;;20.67;7.40;;;;;;;;;;5028364;28;20243;-75
2021/11/18 01:17:12;;;;;;;18.07;7.10;;;;;;;;;;5031488;28;20181;-74
2021/11/18 01:19:38;;;;;;;19.70;6.87;;;;;;;;;;5030910;28;20268;-73
2021/11/18 01:22:04;;;;;;;18.33;6.93;;;;;;;;;;5027953;28;20762;-72
2021/11/18 01:24:29;;;;;;;20.13;6.53;;;;;;;;;;5028147;28;20174;-73
2021/11/18 01:26:54;;;;;;;16.80;7.00;;;;;;;;;;5031354;28;20255;-76
2021/11/18 01:29:20;;;;;;;17.63;6.47;;;;;;;;;;5029139;28;20244;-72
2021/11/18 01:31:45;;;;;;;16.50;6.67;;;;;;;;;;5028196;28;21124;-72
2021/11/18 01:34:10;;;;;;;14.20;6.20;;;;;;;;;;5026872;28;20189;-73
2021/11/18 01:36:36;;;;;;;16.80;6.07;;;;;;;;;;5028833;28;20198;-72
2021/11/18 01:39:03;;;;;;;19.90;6.17;;;;;;;;;;5025926;28;20234;-73
2021/11/18 01:41:29;;;;;;;16.77;6.60;;;;;;;;;;5027880;28;20683;-75
2021/11/18 01:43:58;;;;;;;15.93;6.40;;;;;;;;;;5026761;28;20194;-73
2021/11/18 01:46:30;;;;;;;22.20;7.87;;;;;;;;;;5027950;28;20788;-73
2021/11/18 01:48:55;;;;;;;21.77;6.43;;;;;;;;;;5027153;28;20613;-72
2021/11/18 01:51:27;;;;;;;18.27;6.37;;;;;;;;;;5026282;28;20184;-73
2021/11/18 01:53:52;;;;;;;16.77;6.77;;;;;;;;;;5027138;28;20276;-74
2021/11/18 01:56:19;;;;;;;21.40;6.67;;;;;;;;;;5026064;28;20562;-75
2021/11/18 01:58:48;;;;;;;17.83;7.23;;;;;;;;;;5041334;28;20218;-73
2021/11/18 02:01:13;;;;;;;21.67;7.03;;;;;;;;;;5034714;28;20297;-72
2021/11/18 02:03:38;;;;;;;25.93;6.97;;;;;;;;;;5025886;28;20595;-73
2021/11/18 02:06:05;;;;;;;23.27;7.67;;;;;;;;;;5028194;28;20197;-73
2021/11/18 02:08:31;;;;;;;13.70;7.07;;;;;;;;;;5028462;28;20174;-72
2021/11/18 02:11:00;;;;;;;15.97;7.03;;;;;;;;;;5026899;28;20185;-73
2021/11/18 02:13:26;;;;;;;30.23;8.53;;;;;;;;;;5025760;28;20178;-74
2021/11/18 02:15:56;;;;;;;21.90;7.33;;;;;;;;;;5033089;28;20250;-73
2021/11/18 02:18:23;;;;;;;24.83;7.10;;;;;;;;;;5042216;28;20566;-73
2021/11/18 02:20:49;;;;;;;19.03;7.57;;;;;;;;;;5027335;28;20192;-73
2021/11/18 02:23:16;;;;;;;17.07;6.67;;;;;;;;;;5025883;28;20209;-73
2021/11/18 02:25:42;;;;;;;21.97;6.80;;;;;;;;;;5026910;28;20197;-72
2021/11/18 02:28:07;;;;;;;23.90;8.57;;;;;;;;;;5025897;28;20647;-72
2021/11/18 02:30:35;;;;;;;21.33;9.20;;;;;;;;;;5025074;28;20256;-74
2021/11/18 02:33:00;;;;;;;25.30;8.13;;;;;;;;;;5025841;28;20272;-72
2021/11/18 02:35:31;;;;;;;14.90;6.53;;;;;;;;;;5026791;28;20198;-72
2021/11/18 02:37:57;;;;;;;18.87;7.57;;;;;;;;;;5028978;28;20204;-72
2021/11/18 02:40:23;;;;;;;16.93;6.33;;;;;;;;;;5024889;28;20198;-73
2021/11/18 02:42:49;;;;;;;19.17;7.13;;;;;;;;;;5025438;28;20222;-73
2021/11/18 02:45:16;;;;;;;20.63;7.77;;;;;;;;;;5040657;22;20272;-75
2021/11/18 02:47:41;;;;;;;22.83;8.33;;;;;;;;;;5062076;28;20699;-72
2021/11/18 02:50:08;;;;;;;28.77;9.33;;;;;;;;;;5053707;28;20177;-71
2021/11/18 02:52:34;;;;;;;21.17;8.17;;;;;;;;;;5050373;28;20203;-74
2021/11/18 02:55:02;;;;;;;20.87;7.00;;;;;;;;;;5050747;28;20259;-72
2021/11/18 02:57:27;;;;;;;21.23;6.67;;;;;;;;;;5037610;28;20185;-73
2021/11/18 02:59:53;;;;;;;18.27;7.63;;;;;;;;;;5034843;28;20194;-73
2021/11/18 03:02:18;;;;;;;21.20;8.27;;;;;;;;;;5020564;28;20220;-73
2021/11/18 03:04:43;;;;;;;21.20;8.73;;;;;;;;;;5021648;28;20263;-72
2021/11/18 03:07:09;;;;;;;28.07;8.47;;;;;;;;;;5039109;28;20202;-74
2021/11/18 03:09:34;;;;;;;16.87;7.53;;;;;;;;;;5038331;28;20174;-72
2021/11/18 03:12:00;;;;;;;20.20;8.43;;;;;;;;;;5022437;28;20180;-74
2021/11/18 03:14:26;;;;;;;27.03;8.60;;;;;;;;;;5039080;28;20189;-72
2021/11/18 03:16:51;;;;;;;19.80;8.17;;;;;;;;;;5041366;28;20205;-74
2021/11/18 03:19:16;;;;;;;22.53;8.07;;;;;;;;;;5039674;28;20485;-74
2021/11/18 03:21:42;;;;;;;24.57;8.97;;;;;;;;;;5034492;28;20253;-72
2021/11/18 03:24:07;;;;;;;28.20;9.50;;;;;;;;;;5038404;28;20177;-73
2021/11/18 03:26:33;;;;;;;23.80;7.73;;;;;;;;;;5038582;28;20203;-75
2021/11/18 03:28:58;;;;;;;24.30;8.83;;;;;;;;;;5036368;28;20644;-73
2021/11/18 03:31:24;;;;;;;21.17;7.07;;;;;;;;;;5035928;28;20251;-73
2021/11/18 03:34:16;;;;;;;17.37;7.13;;;;;;;;;;5039566;28;20264;-73
2021/11/18 03:36:41;;;;;;;20.97;6.87;;;;;;;;;;5036280;28;20345;-74
2021/11/18 03:39:08;;;;;;;23.03;7.73;;;;;;;;;;5033899;28;20175;-74
2021/11/18 03:41:34;;;;;;;18.00;8.23;;;;;;;;;;5037312;28;20712;-74
2021/11/18 03:44:01;;;;;;;22.00;7.93;;;;;;;;;;5039347;28;20178;-74
2021/11/18 03:46:28;;;;;;;20.63;7.83;;;;;;;;;;5038757;28;20582;-74
2021/11/18 03:48:54;;;;;;;21.83;8.10;;;;;;;;;;5038307;28;20842;-75
2021/11/18 03:51:19;;;;;;;17.60;7.07;;;;;;;;;;5024036;28;20185;-74
2021/11/18 03:53:45;;;;;;;17.77;7.50;;;;;;;;;;5036518;28;20679;-74
2021/11/18 03:56:15;;;;;;;20.93;7.87;;;;;;;;;;5039642;28;20202;-74
2021/11/18 03:58:40;;;;;;;19.77;9.03;;;;;;;;;;5020332;28;20188;-74
2021/11/18 04:01:05;;;;;;;18.10;7.90;;;;;;;;;;5039885;28;20190;-73
2021/11/18 04:03:31;;;;;;;25.77;8.63;;;;;;;;;;5019272;28;20208;-73
2021/11/18 04:05:57;;;;;;;24.03;7.43;;;;;;;;;;5035729;28;20693;-73
2021/11/18 04:08:22;;;;;;;23.97;7.63;;;;;;;;;;5037368;28;21829;-74
2021/11/18 04:10:47;;;;;;;23.07;9.93;;;;;;;;;;5034862;28;20185;-74
2021/11/18 04:13:12;;;;;;;17.23;7.37;;;;;;;;;;5037247;28;20200;-73
2021/11/18 04:15:37;;;;;;;22.53;7.47;;;;;;;;;;5037222;28;20209;-74
2021/11/18 04:18:03;;;;;;;16.93;8.13;;;;;;;;;;5038045;28;20182;-74
2021/11/18 04:20:29;;;;;;;22.10;7.93;;;;;;;;;;5034953;28;20557;-74
2021/11/18 04:22:55;;;;;;;22.47;8.37;;;;;;;;;;5024541;28;20197;-74
2021/11/18 04:25:22;;;;;;;27.57;8.17;;;;;;;;;;5019847;28;20197;-74
2021/11/18 04:27:48;;;;;;;20.63;7.27;;;;;;;;;;5016498;28;20190;-74
2021/11/18 04:30:15;;;;;;;22.57;7.03;;;;;;;;;;5036743;28;20180;-72
2021/11/18 04:32:40;;;;;;;19.27;7.53;;;;;;;;;;5037414;28;20204;-73
2021/11/18 04:35:06;;;;;;;19.43;7.30;;;;;;;;;;5037658;28;20746;-74
2021/11/18 04:37:31;;;;;;;19.77;7.10;;;;;;;;;;5038295;28;20219;-73
2021/11/18 04:39:56;;;;;;;24.60;9.20;;;;;;;;;;5035887;28;20231;-72
2021/11/18 04:42:22;;;;;;;26.23;9.43;;;;;;;;;;5035910;28;20209;-74
2021/11/18 04:44:48;;;;;;;15.77;6.40;;;;;;;;;;5020690;28;20961;-74
2021/11/18 04:47:13;;;;;;;30.03;9.73;;;;;;;;;;5036994;28;20213;-74
2021/11/18 04:49:40;;;;;;;28.20;7.90;;;;;;;;;;5037430;28;20177;-73
2021/11/18 04:52:06;;;;;;;22.27;8.23;;;;;;;;;;5036298;28;20284;-74
2021/11/18 04:54:31;;;;;;;15.93;7.20;;;;;;;;;;5034065;28;20181;-74
2021/11/18 04:56:57;;;;;;;44.53;8.87;;;;;;;;;;5035215;28;20665;-73
2021/11/18 04:59:22;;;;;;;21.90;8.07;;;;;;;;;;5036994;28;20907;-73
2021/11/18 05:01:48;;;;;;;21.33;8.30;;;;;;;;;;5018225;28;20205;-74
2021/11/18 05:04:13;;;;;;;31.77;10.40;;;;;;;;;;5034680;28;20189;-72
2021/11/18 05:06:38;;;;;;;22.63;8.83;;;;;;;;;;5035941;28;20255;-73
2021/11/18 05:09:04;;;;;;;26.77;8.67;;;;;;;;;;5018703;28;20208;-73
2021/11/18 05:11:30;;;;;;;25.13;9.60;;;;;;;;;;5034820;28;20271;-73
2021/11/18 05:13:55;;;;;;;20.43;8.00;;;;;;;;;;5035281;28;20726;-73
2021/11/18 05:16:20;;;;;;;30.97;9.20;;;;;;;;;;5038572;28;20250;-74
2021/11/18 05:18:46;;;;;;;36.50;11.87;;;;;;;;;;5036069;28;20185;-74
2021/11/18 05:21:12;;;;;;;22.00;8.97;;;;;;;;;;5030032;28;20177;-73
2021/11/18 05:23:38;;;;;;;23.80;9.40;;;;;;;;;;5034329;28;20574;-72
2021/11/18 05:26:04;;;;;;;17.97;8.50;;;;;;;;;;5034341;28;20239;-72
2021/11/18 05:28:29;;;;;;;22.63;9.67;;;;;;;;;;5034436;28;20662;-74
2021/11/18 05:30:55;;;;;;;25.80;9.03;;;;;;;;;;5032979;28;20564;-72
2021/11/18 05:33:22;;;;;;;27.07;10.33;;;;;;;;;;5033577;28;20221;-73
2021/11/18 05:35:47;;;;;;;20.53;8.37;;;;;;;;;;5034129;28;20271;-73
2021/11/18 05:38:13;;;;;;;28.93;8.93;;;;;;;;;;5037604;28;20900;-72
2021/11/18 05:40:39;;;;;;;36.47;9.77;;;;;;;;;;5034494;28;21715;-74
2021/11/18 05:43:04;;;;;;;19.83;8.20;;;;;;;;;;5037759;28;20396;-74
2021/11/18 05:45:31;;;;;;;23.77;9.10;;;;;;;;;;5035935;28;21692;-73
2021/11/18 05:47:57;;;;;;;20.60;8.57;;;;;;;;;;5035192;28;20177;-74
2021/11/18 05:50:23;;;;;;;22.00;9.07;;;;;;;;;;5034570;28;20258;-73
2021/11/18 05:52:48;;;;;;;23.10;9.40;;;;;;;;;;5026226;28;20203;-71
2021/11/18 05:55:15;;;;;;;28.67;9.13;;;;;;;;;;5034765;28;20540;-72
2021/11/18 05:57:42;;;;;;;24.80;8.30;;;;;;;;;;5016278;28;20567;-73
2021/11/18 06:00:08;;;;;;;21.20;7.53;;;;;;;;;;5034685;28;20181;-74
2021/11/18 06:02:33;;;;;;;20.27;7.07;;;;;;;;;;5035688;28;20209;-74
2021/11/18 06:04:58;;;;;;;29.17;8.77;;;;;;;;;;5032090;28;20898;-74
2021/11/18 06:07:24;;;;;;;17.87;8.10;;;;;;;;;;5035730;28;20186;-74
2021/11/18 06:09:49;;;;;;;24.93;8.50;;;;;;;;;;5032567;28;20177;-74
2021/11/18 06:12:14;;;;;;;26.87;8.37;;;;;;;;;;5035156;28;20189;-73
2021/11/18 06:14:39;;;;;;;26.50;9.23;;;;;;;;;;5035874;28;20185;-74
2021/11/18 06:17:04;;;;;;;24.23;8.70;;;;;;;;;;5034735;28;20533;-72
2021/11/18 06:19:30;;;;;;;19.73;7.97;;;;;;;;;;5034030;28;20189;-70
2021/11/18 06:21:56;;;;;;;22.00;8.40;;;;;;;;;;5034590;28;20253;-74
2021/11/18 06:24:22;;;;;;;21.13;9.13;;;;;;;;;;5034643;28;20181;-72
2021/11/18 06:26:48;;;;;;;18.57;8.33;;;;;;;;;;5033424;28;20201;-73
2021/11/18 06:29:19;;;;;;;26.00;8.67;;;;;;;;;;5018082;28;20173;-73
2021/11/18 06:31:45;;;;;;;25.53;8.93;;;;;;;;;;5021017;28;20259;-74
2021/11/18 06:34:10;;;;;;;20.87;8.00;;;;;;;;;;5045558;28;20243;-72
2021/11/18 06:36:35;;;;;;;27.50;9.10;;;;;;;;;;5033683;28;20201;-74
2021/11/18 06:39:01;;;;;;;23.23;9.07;;;;;;;;;;5029697;28;21597;-74
2021/11/18 06:41:29;;;;;;;21.17;8.70;;;;;;;;;;5033091;28;20209;-74
2021/11/18 06:43:54;;;;;;;27.50;9.10;;;;;;;;;;5032390;28;20212;-74
2021/11/18 06:46:19;;;;;;;25.53;9.10;;;;;;;;;;5033612;28;20295;-74
2021/11/18 06:48:45;;;;;;;25.33;9.93;;;;;;;;;;5034769;28;20234;-72
2021/11/18 06:51:14;;;;;;;22.80;9.40;;;;;;;;;;5033222;28;20224;-73
2021/11/18 06:53:41;;;;;;;19.40;9.57;;;;;;;;;;5026416;28;20203;-73
2021/11/18 06:56:07;;;;;;;33.43;10.40;;;;;;;;;;5035507;28;20224;-74
2021/11/18 06:58:33;;;;;;;23.00;10.77;;;;;;;;;;5034651;28;20263;-74
2021/11/18 07:00:58;;;;;;;30.57;11.00;;;;;;;;;;5033621;28;20193;-72
2021/11/18 07:03:24;;;;;;;27.83;11.13;;;;;;;;;;5035234;28;20212;-73
2021/11/18 07:05:49;;;;;;;25.50;9.67;;;;;;;;;;5034181;28;20285;-74
2021/11/18 07:08:15;;;;;;;27.27;10.80;;;;;;;;;;5034657;28;20180;-73
2021/11/18 07:10:41;;;;;;;31.73;10.60;;;;;;;;;;5034485;28;20182;-72
2021/11/18 07:13:13;;;;;;;28.83;11.23;;;;;;;;;;5032490;28;20192;-70
2021/11/18 07:15:38;;;;;;;26.47;11.47;;;;;;;;;;5036230;28;20411;-72
2021/11/18 07:18:04;;;;;;;21.53;9.67;;;;;;;;;;5033588;28;20193;-72
2021/11/18 07:20:29;;;;;;;35.43;11.03;;;;;;;;;;5031753;28;20190;-73
2021/11/18 07:22:54;;;;;;;25.90;10.07;;;;;;;;;;5039397;28;20593;-72
2021/11/18 07:25:21;;;;;;;24.23;10.73;;;;;;;;;;5033574;28;20197;-72
2021/11/18 07:27:47;;;;;;;25.27;10.00;;;;;;;;;;5035300;28;20950;-73
2021/11/18 07:30:12;;;;;;;25.77;11.43;;;;;;;;;;5032044;28;20259;-73
2021/11/18 07:32:38;;;;;;;22.73;10.03;;;;;;;;;;5031362;28;20186;-72
2021/11/18 07:35:04;;;;;;;23.30;10.17;;;;;;;;;;5034371;28;20186;-73
2021/11/18 07:37:29;;;;;;;24.77;10.53;;;;;;;;;;5033464;28;20190;-72
2021/11/18 07:39:54;;;;;;;25.87;10.53;;;;;;;;;;5032394;28;20178;-73
2021/11/18 07:42:19;;;;;;;22.97;10.57;;;;;;;;;;5017287;28;20213;-73
2021/11/18 07:44:45;;;;;;;27.03;10.37;;;;;;;;;;5017126;28;20182;-73
2021/11/18 07:47:10;;;;;;;22.63;10.03;;;;;;;;;;5036336;28;20211;-72
2021/11/18 07:49:35;;;;;;;29.37;9.73;;;;;;;;;;5039033;28;20821;-73
2021/11/18 07:52:00;;;;;;;23.27;10.47;;;;;;;;;;5037880;28;20173;-73
2021/11/18 07:54:26;;;;;;;25.20;9.00;;;;;;;;;;5038894;28;20230;-73
2021/11/18 07:56:52;;;;;;;27.20;9.97;;;;;;;;;;5016572;28;20233;-73
2021/11/18 07:59:18;;;;;;;23.63;10.83;;;;;;;;;;5036049;28;20195;-74
2021/11/18 08:01:43;;;;;;;22.90;10.00;;;;;;;;;;5037769;28;20311;-74
2021/11/18 08:04:09;;;;;;;21.00;10.87;;;;;;;;;;5020647;28;20603;-74
2021/11/18 08:06:34;;;;;;;30.53;10.43;;;;;;;;;;5020289;28;20197;-71
2021/11/18 08:09:00;;;;;;;36.80;12.93;;;;;;;;;;5037781;28;20262;-70
2021/11/18 08:11:27;;;;;;;25.27;10.03;;;;;;;;;;5023476;28;20529;-73
2021/11/18 08:13:53;;;;;;;20.43;10.50;;;;;;;;;;5038287;28;20195;-75
2021/11/18 08:16:18;;;;;;;22.67;9.60;;;;;;;;;;5041490;28;20200;-74
2021/11/18 08:18:44;;;;;;;23.10;9.97;;;;;;;;;;5037389;28;20185;-73
2021/11/18 08:21:09;;;;;;;26.60;10.20;;;;;;;;;;5030390;28;20217;-73
2021/11/18 08:23:34;;;;;;;37.40;13.07;;;;;;;;;;5018496;28;20305;-74
2021/11/18 08:26:00;;;;;;;25.07;11.00;;;;;;;;;;5038366;28;20201;-74
2021/11/18 08:28:26;;;;;;;25.53;10.67;;;;;;;;;;5036355;28;20267;-73
2021/11/18 08:30:51;;;;;;;22.83;10.90;;;;;;;;;;5033771;28;20188;-73
2021/11/18 08:33:16;;;;;;;23.03;9.87;;;;;;;;;;5038578;28;20268;-74
2021/11/18 08:35:41;;;;;;;24.50;10.83;;;;;;;;;;5038578;28;20198;-73
2021/11/18 08:38:08;;;;;;;28.37;10.73;;;;;;;;;;5039531;28;20620;-74
2021/11/18 08:40:35;;;;;;;22.60;10.93;;;;;;;;;;5036801;28;20212;-74
2021/11/18 08:43:01;;;;;;;21.03;9.47;;;;;;;;;;5037846;28;20708;-74
2021/11/18 08:45:26;;;;;;;23.80;11.27;;;;;;;;;;5039723;28;20319;-76
2021/11/18 08:47:52;;;;;;;21.37;10.90;;;;;;;;;;5041354;28;20540;-76
2021/11/18 08:50:19;;;;;;;18.57;9.60;;;;;;;;;;5038332;28;20242;-78
2021/11/18 08:52:46;;;;;;;28.63;12.07;;;;;;;;;;5036640;28;20184;-77
2021/11/18 08:55:14;;;;;;;21.07;10.43;;;;;;;;;;5036987;28;20197;-77
2021/11/18 08:57:39;;;;;;;30.63;12.23;;;;;;;;;;5037904;28;20189;-79
2021/11/18 09:00:07;;;;;;;23.17;10.30;;;;;;;;;;5036280;28;20844;-78
2021/11/18 09:02:32;;;;;;;29.90;10.17;;;;;;;;;;5036870;28;20208;-76
2021/11/18 09:04:59;;;;;;;25.80;9.40;;;;;;;;;;5035554;28;20263;-77
2021/11/18 09:07:24;;;;;;;25.30;9.80;;;;;;;;;;5036001;28;20204;-77
2021/11/18 09:09:49;;;;;;;23.83;11.43;;;;;;;;;;5035902;28;20659;-79
2021/11/18 09:12:14;;;;;;;27.73;10.20;;;;;;;;;;5033868;28;20176;-76
2021/11/18 09:14:40;;;;;;;19.87;9.50;;;;;;;;;;5034783;28;20190;-76
2021/11/18 09:17:07;;;;;;;29.07;9.33;;;;;;;;;;5019527;28;20205;-76
2021/11/18 09:19:33;;;;;;;22.60;8.83;;;;;;;;;;5017580;28;20577;-79
2021/11/18 09:22:00;;;;;;;19.77;7.90;;;;;;;;;;5034942;28;20200;-77
2021/11/18 09:24:34;;;;;;;23.77;8.63;;;;;;;;;;5037387;28;20177;-77
2021/11/18 09:27:01;;;;;;;19.07;8.33;;;;;;;;;;5036718;28;20201;-77
2021/11/18 09:29:28;;;;;;;15.80;6.97;;;;;;;;;;5031349;28;20181;-76
2021/11/18 09:31:54;;;;;;;21.27;7.20;;;;;;;;;;5039574;28;20204;-77
2021/11/18 09:34:20;;;;;;;17.42;7.38;;;;;;;;;;5035612;28;20185;-77
2021/11/18 09:36:45;;;;;;;18.20;7.63;;;;;;;;;;5037642;28;20690;-78
2021/11/18 09:39:11;;;;;;;18.37;8.37;;;;;;;;;;5036848;28;20181;-78
2021/11/18 09:41:42;;;;;;;19.77;8.33;;;;;;;;;;5013406;28;20208;-77
2021/11/18 09:44:19;;;;;;;18.10;8.23;;;;;;;;;;5018048;28;20199;-77
2021/11/18 09:46:44;;;;;;;16.73;7.93;;;;;;;;;;5036387;28;20347;-77
2021/11/18 09:49:28;;;;;;;26.87;10.73;;;;;;;;;;5020346;28;20182;-78
2021/11/18 09:52:16;;;;;;;18.37;8.30;;;;;;;;;;5035125;28;21099;-77
2021/11/18 09:54:49;;;;;;;20.43;8.27;;;;;;;;;;5034083;28;20234;-77
2021/11/18 09:57:17;;;;;;;16.70;7.20;;;;;;;;;;5015066;28;20288;-76
2021/11/18 10:00:01;;;;;;;17.47;7.30;;;;;;;;;;5015051;28;20642;-77
2021/11/18 10:02:52;;;;;;;19.00;8.47;;;;;;;;;;5037735;28;20621;-76
2021/11/18 10:05:25;;;;;;;15.57;7.82;;;;;;;;;;5035691;28;20182;-77
2021/11/18 10:07:54;;;;;;;19.55;8.95;;;;;;;;;;5034880;28;20189;-77
2021/11/18 10:10:19;;;;;;;23.75;10.10;;;;;;;;;;5034788;28;20727;-77
2021/11/18 10:13:03;;;;;;;17.38;8.82;;;;;;;;;;5035834;28;20634;-78
2021/11/18 10:15:35;;;;;;;18.58;7.70;;;;;;;;;;5032452;28;20864;-74
2021/11/18 10:18:03;;;;;;;17.83;7.63;;;;;;;;;;5033349;28;20189;-76
2021/11/18 10:20:32;;;;;;;17.90;7.07;;;;;;;;;;5034323;28;20728;-75
2021/11/18 10:23:03;;;;;;;20.10;8.30;;;;;;;;;;5034025;28;20308;-80
2021/11/18 10:25:34;;;;;;;17.58;7.63;;;;;;;;;;5018446;28;20312;-77
2021/11/18 10:28:20;;;;;;;15.30;7.45;;;;;;;;;;5035973;28;20173;-77
2021/11/18 10:30:53;;;;;;;18.98;7.68;;;;;;;;;;5035010;28;20655;-77
2021/11/18 10:33:39;;;;;;;18.38;7.30;;;;;;;;;;5035591;28;20177;-76
2021/11/18 10:36:12;;;;;;;17.13;7.63;;;;;;;;;;5040881;28;20206;-75
2021/11/18 10:38:40;;;;;;;16.63;7.50;;;;;;;;;;5036392;28;20173;-79
2021/11/18 10:41:05;;;;;;;22.55;7.28;;;;;;;;;;5038539;28;20183;-75
2021/11/18 10:43:32;;;;;;;13.52;7.00;;;;;;;;;;5016790;28;20202;-76
2021/11/18 10:46:06;;;;;;;19.52;8.15;;;;;;;;;;5036479;28;20223;-75
2021/11/18 10:48:34;;;;;;;18.52;6.53;;;;;;;;;;5034563;28;20273;-75
2021/11/18 10:51:26;;;;;;;19.25;6.53;;;;;;;;;;5017217;28;20173;-76
2021/11/18 10:53:56;;;;;;;21.17;7.10;;;;;;;;;;5002147;28;20185;-77
2021/11/18 10:56:39;;;;;;;16.88;6.90;;;;;;;;;;5037778;28;20390;-78
2021/11/18 10:59:06;;;;;;;18.05;6.40;;;;;;;;;;5024257;28;20185;-75
2021/11/18 11:01:34;;;;;;;14.40;7.13;;;;;;;;;;5034359;28;20185;-76
2021/11/18 11:04:02;;;;;;;20.60;7.68;;;;;;;;;;5036899;28;20174;-76
2021/11/18 11:06:28;;;;;;;17.90;8.00;;;;;;;;;;5029904;28;20416;-77
2021/11/18 11:08:55;;;;;;;16.35;6.65;;;;;;;;;;5034558;28;20201;-78
2021/11/18 11:11:27;;;;;;;25.42;7.57;;;;;;;;;;5032086;28;20205;-76
2021/11/18 11:14:12;;;;;;;16.33;6.57;;;;;;;;;;5033374;28;20197;-76
2021/11/18 11:16:55;;;;;;;14.77;5.53;;;;;;;;;;5036218;28;20689;-75
2021/11/18 11:19:24;;;;;;;16.40;5.72;;;;;;;;;;5031885;28;20901;-79
2021/11/18 11:21:57;;;;;;;16.83;5.60;;;;;;;;;;5040677;28;20684;-76
2021/11/18 11:24:30;;;;;;;23.65;5.28;;;;;;;;;;5039146;28;20271;-75
2021/11/18 11:27:10;;;;;;;17.15;4.93;;;;;;;;;;5041837;28;20193;-75
2021/11/18 11:29:39;;;;;;;12.63;5.13;;;;;;;;;;5022930;28;20208;-79
2021/11/18 11:32:05;;;;;;;16.75;5.38;;;;;;;;;;5041541;28;20182;-78
2021/11/18 11:34:48;;;;;;;22.13;6.78;;;;;;;;;;5041441;28;20188;-75
2021/11/18 11:37:29;;;;;;;17.45;5.63;;;;;;;;;;5032145;28;21211;-76
2021/11/18 11:39:55;;;;;;;17.23;5.28;;;;;;;;;;5041416;28;20185;-75
2021/11/18 11:42:35;;;;;;;14.10;5.20;;;;;;;;;;5024095;28;20201;-81
2021/11/18 11:45:15;;;;;;;21.67;5.25;;;;;;;;;;5042925;28;20219;-78
2021/11/18 11:47:59;;;;;;;16.15;4.97;;;;;;;;;;5042061;28;20176;-79
2021/11/18 11:50:33;;;;;;;19.15;4.95;;;;;;;;;;5049570;28;20181;-78
2021/11/18 11:53:04;;;;;;;16.05;5.78;;;;;;;;;;5051898;28;20174;-76
2021/11/18 11:55:34;;;;;;;16.42;5.32;;;;;;;;;;5050062;28;20200;-77
2021/11/18 11:57:59;;;;;;;11.25;5.03;;;;;;;;;;5053721;28;20174;-79
2021/11/18 12:00:24;;;;;;;14.88;4.88;;;;;;;;;;5061305;28;20170;-76
2021/11/18 12:02:56;;;;;;;16.95;6.78;;;;;;;;;;5032065;28;20622;-77
2021/11/18 12:05:21;;;;;;;19.17;6.10;;;;;;;;;;5040796;28;20287;-76
2021/11/18 12:07:53;;;;;;;16.88;5.78;;;;;;;;;;5039659;28;20184;-81
2021/11/18 12:10:34;;;;;;;24.33;6.88;;;;;;;;;;5018109;28;20422;-78
2021/11/18 12:13:02;;;;;;;22.95;5.85;;;;;;;;;;5041008;28;20261;-75
2021/11/18 12:15:28;;;;;;;23.25;6.10;;;;;;;;;;5033803;28;20197;-77
2021/11/18 12:18:01;;;;;;;18.13;5.40;;;;;;;;;;5040331;28;20184;-81
2021/11/18 12:20:28;;;;;;;26.85;6.78;;;;;;;;;;5038918;28;20663;-78
2021/11/18 12:22:56;;;;;;;18.90;5.78;;;;;;;;;;5037950;28;20652;-81
2021/11/18 12:25:40;;;;;;;14.80;6.72;;;;;;;;;;5032735;28;20292;-77
2021/11/18 12:28:12;;;;;;;16.98;5.50;;;;;;;;;;5019085;28;20181;-77
2021/11/18 12:30:46;;;;;;;18.70;5.80;;;;;;;;;;5041517;28;20170;-81
2021/11/18 12:33:31;;;;;;;24.38;7.63;;;;;;;;;;5037825;28;20219;-78
2021/11/18 12:36:00;;;;;;;16.23;5.53;;;;;;;;;;5034814;28;20209;-77
2021/11/18 12:38:34;;;;;;;14.95;5.40;;;;;;;;;;5031263;28;20187;-76
2021/11/18 12:41:07;;;;;;;14.50;5.43;;;;;;;;;;5029243;28;20219;-77
2021/11/18 12:43:51;;;;;;;18.65;5.53;;;;;;;;;;5023967;28;20209;-77
2021/11/18 12:46:20;;;;;;;17.25;5.25;;;;;;;;;;5025634;28;20209;-80
2021/11/18 12:48:52;;;;;;;18.15;7.00;;;;;;;;;;5040004;28;20173;-78
2021/11/18 12:51:17;;;;;;;21.25;5.85;;;;;;;;;;5041226;28;20194;-77
2021/11/18 12:53:50;;;;;;;19.30;5.72;;;;;;;;;;5038440;28;20219;-76
2021/11/18 12:56:27;;;;;;;19.48;5.18;;;;;;;;;;5035836;28;20272;-77
2021/11/18 12:58:52;;;;;;;21.98;6.00;;;;;;;;;;5039379;28;20703;-77
2021/11/18 13:01:20;;;;;;;15.95;4.85;;;;;;;;;;5034771;28;20848;-81
2021/11/18 13:03:51;;;;;;;19.15;7.03;;;;;;;;;;5020026;28;20203;-77
2021/11/18 13:06:29;;;;;;;19.45;4.88;;;;;;;;;;5034771;28;20666;-77
2021/11/18 13:08:57;;;;;;;14.73;4.97;;;;;;;;;;5034373;28;20216;-78
2021/11/18 13:11:25;;;;;;;21.55;5.70;;;;;;;;;;5036577;28;20189;-79
2021/11/18 13:14:08;;;;;;;18.35;5.78;;;;;;;;;;5040483;28;20204;-77
2021/11/18 13:16:36;;;;;;;17.90;4.95;;;;;;;;;;5039483;28;20196;-77
2021/11/18 13:19:14;;;;;;;19.33;6.38;;;;;;;;;;5036002;28;20174;-81
2021/11/18 13:21:46;;;;;;;16.13;4.88;;;;;;;;;;5039924;28;20310;-77
2021/11/18 13:24:11;;;;;;;19.73;5.35;;;;;;;;;;5037913;28;20195;-79
2021/11/18 13:26:44;;;;;;;21.25;6.13;;;;;;;;;;5034739;28;20202;-80
2021/11/18 13:29:23;;;;;;;19.95;4.65;;;;;;;;;;5019148;28;20260;-78
2021/11/18 13:31:57;;;;;;;13.57;5.15;;;;;;;;;;5023358;28;20188;-78
2021/11/18 13:34:27;;;;;;;18.45;5.35;;;;;;;;;;5039938;28;22209;-76
2021/11/18 13:37:02;;;;;;;19.77;5.53;;;;;;;;;;5022509;28;20244;-78
2021/11/18 13:39:36;;;;;;;18.48;5.53;;;;;;;;;;5034599;28;20212;-79
2021/11/18 13:42:14;;;;;;;18.42;4.95;;;;;;;;;;5020946;28;20208;-79
2021/11/18 13:44:41;;;;;;;21.75;5.28;;;;;;;;;;5043229;28;20207;-79
2021/11/18 13:47:21;;;;;;;16.30;4.50;;;;;;;;;;5037917;28;20232;-76
2021/11/18 13:49:47;;;;;;;14.15;5.40;;;;;;;;;;5037862;28;20177;-76
2021/11/18 13:52:18;;;;;;;18.60;5.15;;;;;;;;;;5017986;28;20174;-80
2021/11/18 13:54:51;;;;;;;20.35;6.15;;;;;;;;;;5037772;28;20234;-77
2021/11/18 13:57:19;;;;;;;15.13;5.10;;;;;;;;;;5027515;28;20679;-76
2021/11/18 13:59:51;;;;;;;21.02;4.82;;;;;;;;;;5020010;28;20185;-77
2021/11/18 14:02:16;;;;;;;25.77;5.82;;;;;;;;;;5035221;28;20271;-76
2021/11/18 14:04:46;;;;;;;16.73;5.03;;;;;;;;;;5020262;28;20586;-77
2021/11/18 14:07:11;;;;;;;17.42;5.45;;;;;;;;;;5041134;28;20439;-78
2021/11/18 14:09:38;;;;;;;14.90;5.93;;;;;;;;;;5017637;28;20286;-77
2021/11/18 14:12:15;;;;;;;27.33;6.82;;;;;;;;;;5034774;28;20205;-77
2021/11/18 14:14:49;;;;;;;15.05;4.70;;;;;;;;;;5018639;28;20231;-79
2021/11/18 14:17:28;;;;;;;21.25;5.70;;;;;;;;;;5033171;28;20696;-81
2021/11/18 14:20:05;;;;;;;17.85;5.13;;;;;;;;;;5038901;28;20181;-76
2021/11/18 14:22:31;;;;;;;15.23;5.13;;;;;;;;;;5035138;28;20204;-81
2021/11/18 14:24:58;;;;;;;18.52;4.82;;;;;;;;;;5036288;28;20190;-79
2021/11/18 14:27:26;;;;;;;14.57;4.90;;;;;;;;;;5039823;28;20213;-76
2021/11/18 14:29:53;;;;;;;17.05;4.28;;;;;;;;;;5019573;28;20181;-77
2021/11/18 14:32:38;;;;;;;20.20;4.43;;;;;;;;;;5037296;28;20186;-78
2021/11/18 14:35:06;;;;;;;18.17;4.35;;;;;;;;;;5033228;28;20176;-75